Tiempo atmosférico en la estación meteorológica de Riaño, León (1090 m.)



Fecha
DESCASC
Temp. máxima en grados centígrados (hora)
DESCASC
Temp. mínima en grados centígrados (hora)
DESCASC
Temp. media en grados centígrados
DESCASC
Racha de viento máxima en m/sg (hora)
DESCASC
Velocidad máxima media en intervalos de 10 minutos(hora)
DESCASC
Precipitaciones diarias en mm
DESCASC
Precipitaciones de 00:00 a 06:00 en mm
DESCASC
Precipitaciones de 06:00 a 12:00 en mm
DESCASC
Precipitaciones de 12:00 a 18:00 en mm
DESCASC
Precipitaciones de 18:00 a 24:00 en mm
DESCASC
22-04-2019 12.2 (17:40) 1.9 (08:00) 7 9.72 (23:59) 6.11 (23:50) 0 0 0 0 0
21-04-2019 14.2 (15:30) 4.7 (23:59) 9.4 11.11 (03:20) 6.67 (03:20) 0 0 0 0 0
20-04-2019 16.5 (13:00) 2.7 (05:40) 9.6 13.33 (13:30) 7.5 (15:10) 0 0 0 0 0
19-04-2019 16.4 (16:20) 6.2 (05:40) 11.3 15.28 (16:40) 8.33 (16:40) 3.4 3.2 0 0.2 0
18-04-2019 12.2 (00:00) 6.3 (00:00) 9.3 11.94 (03:50) 5.28 (04:30) 18 10 0.6 4.2 3.2
17-04-2019 16.2 (18:10) 6.1 (00:00) 11.2 15.28 (14:20) 8.89 (14:00) 0.4 0 0 0 0.4
16-04-2019 15.6 (16:30) 1 (00:00) 8.3 10.56 (15:30) 6.94 (15:50) 0 0 0 0 0
15-04-2019 15.7 (13:00) 6.3 (00:00) 11 17.78 (13:30) 8.89 (13:30) 6 0 0 6 0
14-04-2019 20.4 (15:40) 5 (00:00) 12.7 7.22 (20:20) 4.17 (20:20) 0.2 0 0 0 0.2
13-04-2019 18.4 (17:00) -1 (-00:0) 8.7 7.5 (16:50) 3.89 (16:00) 0 0 0 0 0
12-04-2019 15.2 (18:10) -1.2 (-00:0) 7 5.56 (20:50) 3.33 (20:30) 0 0 0 0 0
11-04-2019 10.2 (16:20) 1.4 (00:00) 5.8 8.89 (14:10) 5.56 (09:40) 0.2 0.2 0 0 0
10-04-2019 7.1 (17:20) -0.1 (00:00) 3.5 11.39 (18:40) 7.5 (18:40) 8.6 0.8 1.8 6 0
09-04-2019 8.2 (15:00) 1.3 (00:00) 4.7 9.72 (16:10) 5.56 (16:10) 3.2 0 1.2 0.4 1.6
08-04-2019 11.3 (16:20) 1.2 (00:00) 6.3 9.72 (14:00) 5.83 (17:30) 2 1.2 0 0.2 0.6
07-04-2019 9.9 (15:20) -0.4 (00:00) 4.7 10.28 (17:00) 6.39 (16:40) 3.8 0 0 0.2 3.6
06-04-2019 7.8 (16:20) -0.8 (-00:0) 3.5 8.06 (11:40) 4.44 (07:20) 4 0 0.2 1 2.8
05-04-2019 7.4 (16:00) 0.4 (00:00) 3.9 6.94 (17:50) 3.61 (22:50) 8 0.4 5.6 2 0
04-04-2019 6.8 (16:00) -2.6 (-00:0) 2.1 10 (17:00) 5.83 (14:40) 6.4 0 5.4 0 1
03-04-2019 4.5 (00:00) -1.7 (-00:0) 1.4 13.33 (11:30) 6.11 (04:20) 4.2 0 0.2 3.8 0.2
02-04-2019 14 (14:10) -0.9 (-00:0) 6.6 11.67 (17:40) 7.5 (17:20) 0 0 0 0 0
01-04-2019 15.7 (14:30) -2.9 (-00:0) 6.4 9.44 (19:10) 6.11 (16:20) 0 0 0 0 0
31-03-2019 15 (15:50) -0.9 (-00:0) 7.1 8.33 (16:30) 4.17 (16:30) 0 0 0 0 0
30-03-2019 15.4 (12:50) -0.5 (-00:0) 7.4 10 (16:10) 6.11 (16:10) 0 0 0 0 0
29-03-2019 16.8 (15:20) -2.8 (-00:0) 7 10 (14:50) 5.28 (15:40) 0 0 0 0 0
28-03-2019 16.9 (13:10) -0.2 (00:00) 8.3 9.44 (14:20) 6.94 (14:20) 0 0 0 0 0
27-03-2019 15.7 (15:00) -1.4 (-00:0) 7.1 12.22 (17:50) 7.78 (17:00) 0 0 0 0 0
26-03-2019 15.4 (14:30) 1 (00:00) 8.2 10 (01:50) 7.22 (01:40) 0 0 0 0 0
25-03-2019 12.8 (15:00) 0.6 (00:00) 6.7 11.94 (17:40) 8.33 (17:30) 0 0 0 0 0

Gráficas

Temp. máximas Temp. mínimas Temp. medias Precipitaciones Rachas de viento máximas Velocidades máximas media en intervalos de 10 minutos

Datos horarios

Fecha y hora oficial Temperatura (ºC) Velocidad del viento (km/h) Dirección del viento Racha (km/h) Dirección de racha Precipitación (mm) Presión (hPa) Tendencia (hPa) Humedad (%)
2019-04-23 23:00:00 1.8 2 Noroeste 6 Nordeste 0 -- -- 93
2019-04-23 22:00:00 2.6 2 Sur 17 Nordeste 0 -- -- 89
2019-04-23 21:00:00 4.4 18 Norte 27 Nordeste 0 -- -- 89
2019-04-23 20:00:00 5.5 2 Sudeste 14 Este 0 -- -- 81
2019-04-23 19:00:00 5 11 Este 19 Este 0.2 -- -- 86
2019-04-23 18:00:00 3.9 11 Sudoeste 38 Sudoeste 0.4 -- -- 82
2019-04-23 17:00:00 9.2 11 Sudeste 26 Sudeste 0 -- -- 58
2019-04-23 16:00:00 8.4 8 Sur 23 Sudoeste 0 -- -- 60
2019-04-23 15:00:00 7.7 17 Sur 33 Sur 0 -- -- 63
2019-04-23 14:00:00 7.5 16 Sudoeste 32 Sudoeste 0 -- -- 62
2019-04-23 13:00:00 7.3 5 Sur 18 Sudoeste 0 -- -- 72
2019-04-23 12:00:00 5.7 9 Sudoeste 26 Sudoeste 0 -- -- 81
2019-04-23 11:00:00 5.4 8 Sudoeste 31 Sur 0 -- -- 87
2019-04-23 10:00:00 5.2 7 Sur 32 Sur 0 -- -- 92
2019-04-23 09:00:00 5.1 16 Sur 32 Sur 0.4 -- -- 91
2019-04-23 08:00:00 5.7 18 Sudeste 27 Sur 2.6 -- -- 90
2019-04-23 07:00:00 6.3 16 Sudeste 31 Sur 0.8 -- -- 90
2019-04-23 06:00:00 6.5 16 Sur 35 Sudeste 0.8 -- -- 90
2019-04-23 05:00:00 6.3 15 Sudeste 31 Sur 0.6 -- -- 90
2019-04-23 04:00:00 6 2 Norte 26 Sudoeste 1.6 -- -- 89
2019-04-23 03:00:00 6.7 10 Sudoeste 31 Sudoeste 0.8 -- -- 83
2019-04-23 02:00:00 7.5 11 Sudoeste 30 Sudoeste 0.6 -- -- 83
2019-04-23 01:00:00 8.7 14 Sudeste 23 Sudeste 0 -- -- 80
2019-04-23 00:00:00 9.5 20 Sur 35 Sur 0 -- -- 73
2019-04-22 23:00:00 10.3 18 Sur 30 Sur 0 -- -- 68
2019-04-22 22:00:00 10.5 15 Sur 28 Sudeste 0 -- -- 69
2019-04-22 21:00:00 10.5 14 Sudeste 22 Sudeste 0 -- -- 70
2019-04-22 20:00:00 10.8 7 Sur 17 Sudeste 0 -- -- 69
2019-04-22 19:00:00 11.3 6 Sur 18 Sudeste 0 -- -- 66
2019-04-22 18:00:00 12 9 Sur 23 Sur 0 -- -- 61
2019-04-22 17:00:00 11.6 9 Sudoeste 23 Sudoeste 0 -- -- 64
2019-04-22 16:00:00 10.9 9 Sudoeste 23 Sudoeste 0 -- -- 63
2019-04-22 15:00:00 10.8 12 Sudoeste 23 Sudoeste 0 -- -- 62
2019-04-22 14:00:00 11.2 5 Sur 21 Sudoeste 0 -- -- 61
2019-04-22 13:00:00 11.3 7 Sur 15 Sudeste 0 -- -- 61
2019-04-22 12:00:00 9.3 8 Este 10 Este 0 -- -- 72
2019-04-22 11:00:00 7.2 0 Calma 3 Norte 0 -- -- 81
2019-04-22 10:00:00 4.9 0 Calma 3 Este 0 -- -- 88
2019-04-22 09:00:00 2.8 0 Calma 4 Sur 0 -- -- 92
2019-04-22 08:00:00 1.9 0 Calma 5 Sudoeste 0 -- -- 91
2019-04-22 07:00:00 2.9 0 Calma 4 Sur 0 -- -- 88
2019-04-22 06:00:00 3.1 0 Calma 4 Sur 0 -- -- 89
2019-04-22 05:00:00 3.5 0 Calma 11 Este 0 -- -- 87
2019-04-22 04:00:00 4.3 4 Este 13 Este 0 -- -- 85
2019-04-22 03:00:00 4.7 4 Este 6 Este 0 -- -- 84
2019-04-22 02:00:00 4.4 0 Calma 3 Sur 0 -- -- 86
2019-04-22 01:00:00 3.8 0 Calma 5 Sur 0 -- -- 84
2019-04-22 00:00:00 4.7 2 Sur 9 Sur 0 -- -- 80
2019-04-21 23:00:00 6.6 4 Nordeste 15 Este 0 -- -- 72
2019-04-21 22:00:00 7.9 11 Este 19 Este 0 -- -- 68
2019-04-21 21:00:00 8.7 14 Este 30 Este 0 -- -- 63
2019-04-21 20:00:00 9.7 21 Este 30 Este 0 -- -- 61
2019-04-21 19:00:00 11.6 14 Nordeste 29 Norte 0 -- -- 60
2019-04-21 18:00:00 12.6 18 Nordeste 37 Norte 0 -- -- 59
2019-04-21 17:00:00 12.5 20 Nordeste 38 Norte 0 -- -- 54
2019-04-21 16:00:00 13.2 21 Norte 32 Norte 0 -- -- 51
2019-04-21 15:00:00 12.7 17 Este 34 Nordeste 0 -- -- 52
2019-04-21 14:00:00 13 13 Nordeste 27 Nordeste 0 -- -- 55
2019-04-21 13:00:00 13.2 19 Nordeste 30 Este 0 -- -- 56
2019-04-21 12:00:00 11.8 19 Norte 33 Norte 0 -- -- 55
2019-04-21 11:00:00 11.8 13 Norte 27 Norte 0 -- -- 58
2019-04-21 10:00:00 10.4 0 Calma 9 Norte 0 -- -- 68
2019-04-21 09:00:00 7.6 4 Oeste 25 Norte 0 -- -- 79
2019-04-21 08:00:00 5.9 2 Sudoeste 12 Noroeste 0 -- -- 77
2019-04-21 07:00:00 5.8 4 Noroeste 13 Oeste 0 -- -- 79
2019-04-21 06:00:00 5.6 4 Oeste 10 Noroeste 0 -- -- 80
2019-04-21 05:00:00 6.8 2 Oeste 17 Norte 0 -- -- 74
2019-04-21 04:00:00 9.6 12 Norte 40 Nordeste 0 -- -- 66
2019-04-21 03:00:00 10.3 18 Nordeste 36 Nordeste 0 -- -- 63
2019-04-21 02:00:00 8.7 21 Norte 36 Nordeste 0 -- -- 72
2019-04-21 01:00:00 7.7 3 Noroeste 12 Noroeste 0 -- -- 73
2019-04-21 00:00:00 9.3 6 Norte 20 Norte 0 -- -- 65
2019-04-20 23:00:00 9.6 8 Norte 27 Nordeste 0 -- -- 64
2019-04-20 22:00:00 10.5 21 Norte 31 Norte 0 -- -- 62
2019-04-20 21:00:00 11.7 20 Este 31 Este 0 -- -- 52
2019-04-20 20:00:00 12.8 23 Este 34 Este 0 -- -- 51
2019-04-20 19:00:00 14.2 16 Este 37 Este 0 -- -- 49
2019-04-20 18:00:00 15 21 Este 44 Este 0 -- -- 47
2019-04-20 17:00:00 15.5 22 Nordeste 43 Nordeste 0 -- -- 49
2019-04-20 16:00:00 15.5 25 Este 45 Este 0 -- -- 47
2019-04-20 15:00:00 15.5 23 Este 39 Este 0 -- -- 50
2019-04-20 14:00:00 16.5 15 Nordeste 48 Norte 0 -- -- 43
2019-04-20 13:00:00 16.5 11 Nordeste 39 Nordeste 0 -- -- 43
2019-04-20 12:00:00 15.4 22 Nordeste 46 Norte 0 -- -- 37
2019-04-20 11:00:00 13 10 Nordeste 28 Norte 0 -- -- 60
2019-04-20 10:00:00 11.8 24 Norte 31 Norte 0 -- -- 66
2019-04-20 09:00:00 6.6 0 Calma 8 Sudeste 0 -- -- 94
2019-04-20 08:00:00 3.3 3 Sudoeste 6 Sudoeste 0 -- -- 97
2019-04-20 07:00:00 2.7 0 Calma 6 Noroeste 0 -- -- 97
2019-04-20 06:00:00 2.7 2 Noroeste 4 Sur 0 -- -- 96
2019-04-20 05:00:00 3.1 0 Calma 4 Sudeste 0 -- -- 95
2019-04-20 04:00:00 3.3 0 Calma 6 Sudoeste 0 -- -- 94
2019-04-20 03:00:00 4 0 Calma 3 Noroeste 0 -- -- 92
2019-04-20 02:00:00 4.9 0 Calma 5 Este 0 -- -- 91
2019-04-20 01:00:00 5.8 2 Sudoeste 5 Este 0 -- -- 89
2019-04-20 00:00:00 6.3 3 Sudoeste 7 Sudeste 0 -- -- 86
2019-04-19 23:00:00 6.8 2 Oeste 4 Sudoeste 0 -- -- 83
2019-04-19 22:00:00 8.8 0 Calma 4 Noroeste 0 -- -- 73
2019-04-19 21:00:00 11.8 2 Sudoeste 8 Sudeste 0 -- -- 61
2019-04-19 20:00:00 13.9 6 Norte 27 Sudeste 0 -- -- 51
2019-04-19 19:00:00 14.7 15 Sudeste 37 Sur 0 -- -- 48
2019-04-19 18:00:00 14 19 Sudeste 38 Sudeste 0 -- -- 53
2019-04-19 17:00:00 14.1 23 Sur 55 Sudeste 0 -- -- 57
2019-04-19 16:00:00 15.6 18 Sudeste 45 Sudeste 0 -- -- 56
2019-04-19 15:00:00 14.4 21 Sudeste 40 Sudeste 0 -- -- 63
2019-04-19 14:00:00 12 21 Sudeste 42 Sur 0 -- -- 70
2019-04-19 13:00:00 11.4 23 Sudeste 43 Sudeste 0.2 -- -- 70
2019-04-19 12:00:00 10.8 14 Sudeste 28 Sudeste 0 -- -- 75
2019-04-19 11:00:00 8.7 12 Sudeste 34 Este 0 -- -- 83
2019-04-19 10:00:00 7.8 19 Sudeste 37 Sudeste 0 -- -- 85
2019-04-19 09:00:00 7.5 20 Sudeste 31 Sudeste 0 -- -- 87
2019-04-19 08:00:00 7.3 12 Sudeste 27 Sudeste 0 -- -- 87
2019-04-19 07:00:00 7 15 Sudeste 30 Sudeste 0 -- -- 91
2019-04-19 06:00:00 6.2 0 Calma 4 Noroeste 0.4 -- -- 97
2019-04-19 05:00:00 6.3 2 Sudoeste 5 Sur 1 -- -- 97
2019-04-19 04:00:00 6.5 2 Norte 16 Norte 0.2 -- -- 95
2019-04-19 03:00:00 6.4 11 Norte 17 Nordeste 0.2 -- -- 96
2019-04-19 02:00:00 6.3 0 Calma 6 Este 0.6 -- -- 96
2019-04-19 01:00:00 6.5 4 Este 8 Nordeste 0.8 -- -- 95
2019-04-19 00:00:00 6.7 0 Calma 15 Nordeste 0 -- -- 94
2019-04-18 23:00:00 6.8 2 Sudoeste 8 Noroeste 0 -- -- 93
2019-04-18 22:00:00 6.9 2 Noroeste 9 Norte 0.4 -- -- 94
2019-04-18 21:00:00 7.2 0 Calma 3 Noroeste 0.4 -- -- 94
2019-04-18 20:00:00 7.5 0 Calma 6 Norte 1.4 -- -- 93
2019-04-18 19:00:00 8.3 3 Norte 4 Norte 1 -- -- 93
2019-04-18 18:00:00 8.4 0 Calma 6 Norte 0.6 -- -- 90
2019-04-18 17:00:00 8.9 0 Calma 3 Nordeste 0.6 -- -- 91
2019-04-18 16:00:00 9 2 Norte 7 Norte 1.2 -- -- 91
2019-04-18 15:00:00 8.7 0 Calma 6 Sur 1.8 -- -- 89
2019-04-18 14:00:00 9 2 Sur 11 Noroeste 0 -- -- 82
2019-04-18 13:00:00 9.2 4 Norte 9 Norte 0 -- -- 88
2019-04-18 12:00:00 8.3 4 Nordeste 8 Este 0 -- -- 94
2019-04-18 11:00:00 7.2 0 Calma 8 Sur 0.2 -- -- 93
2019-04-18 10:00:00 6.8 3 Sudeste 11 Sudeste 0 -- -- 91
2019-04-18 09:00:00 6.4 7 Sudeste 19 Sur 0 -- -- 91
2019-04-18 08:00:00 6.3 16 Sur 26 Sudeste 0 -- -- 92
2019-04-18 07:00:00 6.7 10 Sur 28 Sur 0.4 -- -- 91
2019-04-18 06:00:00 6.9 11 Sudeste 24 Sur 1 -- -- 92
2019-04-18 05:00:00 6.9 14 Sudeste 30 Sudeste 1.6 -- -- 92
2019-04-18 04:00:00 7.3 14 Sudeste 43 Sudeste 2.8 -- -- 91
2019-04-18 03:00:00 7.9 14 Sur 32 Sudeste 3 -- -- 87
2019-04-18 02:00:00 8.6 16 Sudeste 39 Oeste 1.2 -- -- 87
2019-04-18 01:00:00 10.2 17 Sur 38 Sur 0.4 -- -- 83
2019-04-18 00:00:00 12.2 17 Sur 53 Sudeste 0 -- -- 71
2019-04-17 23:00:00 12.6 18 Sudeste 53 Sudeste 0.2 -- -- 67
2019-04-17 22:00:00 12.5 4 Sudeste 51 Sudoeste 0.2 -- -- 68
2019-04-17 21:00:00 13.3 12 Sur 48 Sur 0 -- -- 61
2019-04-17 20:00:00 14.3 22 Sudeste 45 Sudeste 0 -- -- 57
2019-04-17 19:00:00 15.2 21 Sudeste 51 Sudeste 0 -- -- 53
2019-04-17 18:00:00 16.1 17 Sur 42 Sudeste 0 -- -- 50
2019-04-17 17:00:00 13.5 13 Sudeste 29 Sur 0 -- -- 61
2019-04-17 16:00:00 12.7 19 Sur 51 Sur 0 -- -- 65
2019-04-17 15:00:00 13.9 27 Sur 55 Sur 0 -- -- 61
2019-04-17 14:00:00 14.5 32 Sur 53 Sur 0 -- -- 58
2019-04-17 13:00:00 14.7 31 Sur 53 Sur 0 -- -- 60
2019-04-17 12:00:00 13.6 22 Sur 45 Sudoeste 0 -- -- 65
2019-04-17 11:00:00 11.8 21 Sur 47 Sur 0 -- -- 67
2019-04-17 10:00:00 10.6 18 Sur 37 Sur 0 -- -- 69
2019-04-17 09:00:00 9.8 14 Sur 39 Sudeste 0 -- -- 69
2019-04-17 08:00:00 9.4 13 Sudeste 32 Sudeste 0 -- -- 70
2019-04-17 07:00:00 8.9 6 Sur 25 Sudeste 0 -- -- 68
2019-04-17 06:00:00 8.2 5 Sur 20 Este 0 -- -- 69
2019-04-17 05:00:00 8.5 2 Noroeste 13 Sudeste 0 -- -- 67
2019-04-17 04:00:00 9.8 6 Sur 30 Sudeste 0 -- -- 61
2019-04-17 03:00:00 10.7 9 Sur 25 Sudoeste 0 -- -- 58
2019-04-17 02:00:00 6.2 3 Noroeste 11 Nordeste 0 -- -- 79
2019-04-17 01:00:00 6.1 3 Sudoeste 9 Sudoeste 0 -- -- 74
2019-04-17 00:00:00 7.1 2 Noroeste 6 Noroeste 0 -- -- 70
2019-04-16 23:00:00 8.3 3 Noroeste 6 Noroeste 0 -- -- 66
2019-04-16 22:00:00 10.5 3 Sudeste 17 Sudeste 0 -- -- 53
2019-04-16 21:00:00 11.7 10 Sudeste 21 Sudeste 0 -- -- 48
2019-04-16 20:00:00 12.9 8 Sur 30 Sudeste 0 -- -- 49
2019-04-16 19:00:00 14.7 14 Sur 32 Sur 0 -- -- 43
2019-04-16 18:00:00 14.4 6 Sur 36 Sudeste 0 -- -- 41
2019-04-16 17:00:00 15.5 15 Sur 38 Sudeste 0 -- -- 43
2019-04-16 16:00:00 14.4 22 Sur 38 Sudeste 0 -- -- 47
2019-04-16 15:00:00 15.3 8 Sur 30 Sur 0 -- -- 51
2019-04-16 14:00:00 14.6 5 Sudeste 26 Sudeste 0 -- -- 49
2019-04-16 13:00:00 13.9 19 Sudeste 28 Sudeste 0 -- -- 54
2019-04-16 12:00:00 11.6 8 Sur 15 Sudeste 0 -- -- 58
2019-04-16 11:00:00 8.1 3 Nordeste 5 Norte 0 -- -- 80
2019-04-16 10:00:00 5.6 3 Este 5 Este 0 -- -- 84
2019-04-16 09:00:00 2.8 0 Calma 3 Sudeste 0 -- -- 93
2019-04-16 08:00:00 1.6 0 Calma 5 Sur 0 -- -- 98
2019-04-16 07:00:00 1 0 Calma 5 Sudoeste 0 -- -- 96
2019-04-16 06:00:00 1.5 0 Calma 5 Sur 0 -- -- 95
2019-04-16 05:00:00 2 0 Calma 4 Sur 0 -- -- 95
2019-04-16 04:00:00 3.4 0 Calma 8 Nordeste 0 -- -- 91
2019-04-16 03:00:00 4.8 2 Norte 11 Nordeste 0 -- -- 88
2019-04-16 02:00:00 6.3 9 Norte 14 Norte 0 -- -- 87
2019-04-16 01:00:00 6 8 Nordeste 15 Norte 0 -- -- 89
2019-04-16 00:00:00 6.4 14 Norte 25 Norte 0 -- -- 87
2019-04-15 23:00:00 6.6 9 Norte 40 Norte 0 -- -- 81
2019-04-15 22:00:00 7.9 19 Norte 32 Norte 0 -- -- 78
2019-04-15 21:00:00 8.9 15 Norte 27 Norte 0 -- -- 80
2019-04-15 20:00:00 10.8 9 Sudoeste 26 Sudoeste 0 -- -- 61
2019-04-15 19:00:00 12.1 13 Sudoeste 35 Sudoeste 0 -- -- 58
2019-04-15 18:00:00 13.5 17 Sudoeste 32 Sudoeste 0 -- -- 64
2019-04-15 17:00:00 14.3 13 Sudoeste 33 Sudoeste 0 -- -- 59
2019-04-15 16:00:00 15.3 13 Sudoeste 48 Sudoeste 0 -- -- 66
2019-04-15 15:00:00 11.8 10 Sudoeste 27 Sudoeste 2 -- -- 87
2019-04-15 14:00:00 11.9 14 Oeste 64 Sur 4 -- -- 77
2019-04-15 13:00:00 15.7 16 Sur 49 Sur 0 -- -- 67
2019-04-15 12:00:00 14.4 19 Sur 45 Sudeste 0 -- -- 71
2019-04-15 11:00:00 13 26 Sudeste 41 Sur 0 -- -- 79
2019-04-15 10:00:00 12.6 21 Sur 35 Sur 0 -- -- 80
2019-04-15 09:00:00 12.2 15 Sur 29 Sur 0 -- -- 80
2019-04-15 08:00:00 11.9 18 Sur 30 Sur 0 -- -- 81
2019-04-15 07:00:00 11.6 17 Sudeste 31 Sudeste 0 -- -- 82
2019-04-15 06:00:00 11 8 Sudeste 14 Sur 0 -- -- 84
2019-04-15 05:00:00 10.3 2 Sur 5 Sudeste 0 -- -- 83
2019-04-15 04:00:00 10.3 2 Noroeste 8 Oeste 0 -- -- 83
2019-04-15 03:00:00 10.3 0 Calma 15 Sudeste 0 -- -- 81
2019-04-15 02:00:00 10.5 10 Sudeste 15 Sudeste 0 -- -- 82
2019-04-15 01:00:00 11.9 3 Sudeste 16 Sudeste 0 -- -- 77
2019-04-15 00:00:00 11.9 5 Sur 10 Sudoeste 0 -- -- 78
2019-04-14 23:00:00 13.4 8 Sur 19 Sur 0 -- -- 72
2019-04-14 22:00:00 14.3 14 Sur 23 Sur 0 -- -- 68
2019-04-14 21:00:00 14.7 13 Sur 26 Sur 0 -- -- 66
2019-04-14 20:00:00 15 4 Sudeste 9 Nordeste 0 -- -- 71
2019-04-14 19:00:00 15 8 Nordeste 20 Oeste 0.2 -- -- 76
2019-04-14 18:00:00 17.7 11 Sudoeste 26 Sur 0 -- -- 54
2019-04-14 17:00:00 20.4 13 Sur 23 Sur 0 -- -- 51
2019-04-14 16:00:00 20.2 4 Nordeste 12 Norte 0 -- -- 50
2019-04-14 15:00:00 19.3 8 Norte 12 Norte 0 -- -- 53
2019-04-14 14:00:00 17.9 5 Nordeste 8 Nordeste 0 -- -- 58
2019-04-14 13:00:00 16.4 5 Nordeste 8 Nordeste 0 -- -- 60
2019-04-14 12:00:00 15.2 2 Este 4 Norte 0 -- -- 65
2019-04-14 11:00:00 10.9 4 Nordeste 5 Nordeste 0 -- -- 77
2019-04-14 10:00:00 8 0 Calma 3 Sudoeste 0 -- -- 86
2019-04-14 09:00:00 5.8 0 Calma 5 Noroeste 0 -- -- 92
2019-04-14 08:00:00 5 2 Sudoeste 5 Noroeste 0 -- -- 91
2019-04-14 07:00:00 5.8 0 Calma 3 Sur 0 -- -- 88
2019-04-14 06:00:00 7 0 Calma 4 Este 0 -- -- 84
2019-04-14 05:00:00 8.1 3 Sur 4 Sudoeste 0 -- -- 83
2019-04-14 04:00:00 8.2 0 Calma 4 Noroeste 0 -- -- 83
2019-04-14 03:00:00 8.5 2 Sudoeste 8 Noroeste 0 -- -- 81
2019-04-14 02:00:00 9.2 0 Calma 6 Noroeste 0 -- -- 75
2019-04-14 01:00:00 9.7 4 Noroeste 6 Noroeste 0 -- -- 73
2019-04-14 00:00:00 10.4 7 Nordeste 11 Norte 0 -- -- 71
2019-04-13 23:00:00 11.1 5 Norte 10 Nordeste 0 -- -- 69
2019-04-13 22:00:00 11.9 3 Este 17 Norte 0 -- -- 63
2019-04-13 21:00:00 12.6 12 Norte 18 Norte 0 -- -- 62
2019-04-13 20:00:00 14.8 7 Norte 15 Oeste 0 -- -- 55
2019-04-13 19:00:00 16.3 4 Oeste 20 Sudoeste 0 -- -- 41
2019-04-13 18:00:00 16.5 10 Sudoeste 22 Sudoeste 0 -- -- 43
2019-04-13 17:00:00 18.4 4 Noroeste 27 Sur 0 -- -- 38
2019-04-13 16:00:00 17.3 14 Sudoeste 25 Sudoeste 0 -- -- 40
2019-04-13 15:00:00 17.3 10 Sur 23 Sur 0 -- -- 39
2019-04-13 14:00:00 15.9 8 Sudoeste 21 Sur 0 -- -- 45
2019-04-13 13:00:00 14.8 9 Norte 11 Norte 0 -- -- 54
2019-04-13 12:00:00 11.9 4 Nordeste 6 Nordeste 0 -- -- 59
2019-04-13 11:00:00 7.5 3 Nordeste 6 Nordeste 0 -- -- 75
2019-04-13 10:00:00 4.5 4 Nordeste 6 Nordeste 0 -- -- 85
2019-04-13 09:00:00 2 2 Sur 4 Sur 0 -- -- 90
2019-04-13 08:00:00 -0.8 0 Calma 2 Sur 0 -- -- 96
2019-04-13 07:00:00 -1 0 Calma 3 Sudoeste 0 -- -- 95
2019-04-13 06:00:00 -0.7 0 Calma 5 Sudoeste 0 -- -- 94
2019-04-13 05:00:00 -0.6 0 Calma 3 Sur 0 -- -- 91
2019-04-13 04:00:00 0.2 0 Calma 3 Sur 0 -- -- 92
2019-04-13 03:00:00 0.8 0 Calma 3 Sur 0 -- -- 91
2019-04-13 02:00:00 1.6 0 Calma 3 Sudoeste 0 -- -- 88
2019-04-13 01:00:00 2.7 0 Calma 4 Sur 0 -- -- 86
2019-04-13 00:00:00 4 0 Calma 5 Norte 0 -- -- 81
2019-04-12 23:00:00 5.3 0 Calma 4 Sudeste 0 -- -- 82
2019-04-12 22:00:00 7.7 0 Calma 7 Norte 0 -- -- 73
2019-04-12 21:00:00 10.2 4 Norte 20 Norte 0 -- -- 67
2019-04-12 20:00:00 12.1 6 Norte 14 Norte 0 -- -- 53
2019-04-12 19:00:00 15.2 7 Norte 12 Norte 0 -- -- 45
2019-04-12 18:00:00 15.1 6 Nordeste 15 Norte 0 -- -- 38
2019-04-12 17:00:00 14.8 12 Norte 16 Norte 0 -- -- 40
2019-04-12 16:00:00 14.9 9 Norte 15 Norte 0 -- -- 39
2019-04-12 15:00:00 14.6 8 Norte 12 Norte 0 -- -- 40
2019-04-12 14:00:00 12.9 8 Norte 13 Norte 0 -- -- 49
2019-04-12 13:00:00 11.6 7 Norte 10 Norte 0 -- -- 55
2019-04-12 12:00:00 8.6 6 Norte 10 Norte 0 -- -- 67
2019-04-12 11:00:00 4.9 3 Nordeste 5 Norte 0 -- -- 78
2019-04-12 10:00:00 1 3 Sur 7 Sur 0 -- -- 91
2019-04-12 09:00:00 1.1 2 Este 5 Este 0 -- -- 89
2019-04-12 08:00:00 -1.1 0 Calma 7 Este 0 -- -- 95
2019-04-12 07:00:00 -1.2 0 Calma 6 Este 0 -- -- 95
2019-04-12 06:00:00 -1 2 Sudoeste 6 Este 0 -- -- 97
2019-04-12 05:00:00 -1 0 Calma 6 Sudeste 0 -- -- 97
2019-04-12 04:00:00 -0.8 0 Calma 6 Sur 0 -- -- 95
2019-04-12 03:00:00 0.3 3 Sur 5 Norte 0 -- -- 94
2019-04-12 02:00:00 1.7 0 Calma 12 Noroeste 0 -- -- 90
2019-04-12 01:00:00 3.2 7 Norte 15 Norte 0 -- -- 90
2019-04-12 00:00:00 3 6 Noroeste 18 Noroeste 0 -- -- 88
2019-04-11 23:00:00 2.2 4 Sudoeste 8 Sudoeste 0 -- -- 88
2019-04-11 22:00:00 3.9 2 Sudoeste 22 Norte 0 -- -- 84
2019-04-11 21:00:00 4.9 12 Norte 24 Norte 0 -- -- 85
2019-04-11 20:00:00 5.7 15 Norte 30 Norte 0 -- -- 84
2019-04-11 19:00:00 7.5 15 Norte 30 Norte 0 -- -- 74
2019-04-11 18:00:00 8.1 15 Norte 27 Norte 0 -- -- 71
2019-04-11 17:00:00 9.7 9 Noroeste 26 Norte 0 -- -- 64
2019-04-11 16:00:00 8.8 14 Norte 31 Norte 0 -- -- 67
2019-04-11 15:00:00 9.1 8 Norte 32 Noroeste 0 -- -- 66
2019-04-11 14:00:00 8.5 15 Norte 23 Norte 0 -- -- 66
2019-04-11 13:00:00 7.2 15 Norte 25 Norte 0 -- -- 76
2019-04-11 12:00:00 7.4 13 Norte 22 Norte 0 -- -- 71
2019-04-11 11:00:00 5.1 12 Norte 19 Norte 0 -- -- 80
2019-04-11 10:00:00 4.1 18 Norte 26 Norte 0 -- -- 85
2019-04-11 09:00:00 3.4 15 Norte 23 Norte 0 -- -- 89
2019-04-11 08:00:00 3 11 Norte 25 Norte 0 -- -- 87
2019-04-11 07:00:00 2.7 15 Norte 26 Norte 0 -- -- 86
2019-04-11 06:00:00 2.2 12 Norte 21 Norte 0 -- -- 89
2019-04-11 05:00:00 1.8 4 Norte 15 Norte 0 -- -- 84
2019-04-11 04:00:00 2.2 6 Noroeste 23 Norte 0 -- -- 82
2019-04-11 03:00:00 2.9 15 Norte 22 Norte 0 -- -- 90
2019-04-11 02:00:00 3 8 Norte 25 Noroeste 0 -- -- 87
2019-04-11 01:00:00 2.9 9 Norte 20 Norte 0.2 -- -- 90
2019-04-11 00:00:00 3.1 7 Norte 22 Noroeste 0 -- -- 90
2019-04-10 23:00:00 3.5 13 Norte 29 Noroeste 0 -- -- 87
2019-04-10 22:00:00 3.8 16 Norte 30 Nordeste 0 -- -- 91
2019-04-10 21:00:00 4.4 20 Norte 29 Norte 0 -- -- 89
2019-04-10 20:00:00 5 12 Norte 30 Norte 0 -- -- 80
2019-04-10 19:00:00 5.2 18 Norte 41 Norte 0 -- -- 84
2019-04-10 18:00:00 5.8 16 Norte 34 Norte 0 -- -- 85
2019-04-10 17:00:00 6.6 9 Norte 32 Norte 0 -- -- 86
2019-04-10 16:00:00 5.8 2 Nordeste 7 Noroeste 0 -- -- 90
2019-04-10 15:00:00 4.5 2 Nordeste 4 Nordeste 2 -- -- 91
2019-04-10 14:00:00 3.1 0 Calma 3 Noroeste 2.8 -- -- 93
2019-04-10 13:00:00 1.2 0 Calma 4 Este 1.2 -- -- 95
2019-04-10 12:00:00 1 0 Calma 6 Este 0.4 -- -- 96
2019-04-10 11:00:00 1 3 Nordeste 5 Nordeste 0.4 -- -- 95
2019-04-10 10:00:00 1.2 0 Calma 3 Este 0.6 -- -- 96
2019-04-10 09:00:00 1 0 Calma 5 Sudeste 0.4 -- -- 96
2019-04-10 08:00:00 1 0 Calma 6 Sudoeste 0 -- -- 96
2019-04-10 07:00:00 1.1 0 Calma 9 Este 0 -- -- 96
2019-04-10 06:00:00 1.1 3 Sudeste 6 Sudoeste 0.2 -- -- 97
2019-04-10 05:00:00 0.7 2 Sudoeste 5 Sudoeste 0 -- -- 98
2019-04-10 04:00:00 0.2 2 Sudoeste 4 Sudoeste 0 -- -- 98
2019-04-10 03:00:00 0 0 Calma 4 Sur 0 -- -- 96
2019-04-10 02:00:00 1 0 Calma 8 Sur 0 -- -- 93
2019-04-10 01:00:00 2.3 4 Este 33 Norte 0.6 -- -- 91
2019-04-10 00:00:00 3 2 Sur 17 Oeste 1.2 -- -- 92
2019-04-09 23:00:00 4.6 7 Sudoeste 14 Sur 0 -- -- 80
2019-04-09 22:00:00 5.1 5 Sur 19 Sudoeste 0 -- -- 78
2019-04-09 21:00:00 5.9 8 Oeste 19 Sudoeste 0 -- -- 70
2019-04-09 20:00:00 7.1 4 Nordeste 10 Este 0 -- -- 80
2019-04-09 19:00:00 6.9 9 Este 18 Este 0.4 -- -- 80
2019-04-09 18:00:00 7.9 12 Este 16 Este 0 -- -- 72
2019-04-09 17:00:00 5.1 3 Sur 35 Sudoeste 0 -- -- 81
2019-04-09 16:00:00 7.3 15 Sudoeste 25 Sudoeste 0 -- -- 71
2019-04-09 15:00:00 8.2 5 Sur 15 Sur 0 -- -- 72
2019-04-09 14:00:00 6.2 3 Sur 12 Sur 0 -- -- 82
2019-04-09 13:00:00 4.7 7 Sur 11 Sudoeste 0.4 -- -- 91
2019-04-09 12:00:00 4.2 4 Sur 8 Sudoeste 0.4 -- -- 90
2019-04-09 11:00:00 4.1 2 Sur 10 Sudeste 0.2 -- -- 88
2019-04-09 10:00:00 3.7 4 Este 12 Sudeste 0 -- -- 91
2019-04-09 09:00:00 2.7 7 Sudeste 15 Sudeste 0.2 -- -- 94
2019-04-09 08:00:00 2.4 10 Sudeste 15 Sudeste 0.2 -- -- 94
2019-04-09 07:00:00 3 7 Sudeste 13 Sudoeste 0.2 -- -- 93
2019-04-09 06:00:00 3.2 7 Sur 15 Sur 0 -- -- 88
2019-04-09 05:00:00 2.9 10 Sur 17 Sur 0 -- -- 90
2019-04-09 04:00:00 2.3 4 Sur 11 Sudoeste 0 -- -- 90
2019-04-09 03:00:00 1.7 0 Calma 9 Este 0 -- -- 91
2019-04-09 02:00:00 1.7 0 Calma 8 Sudeste 0 -- -- 90
2019-04-09 01:00:00 1.5 0 Calma 9 Sudoeste 0 -- -- 91
2019-04-09 00:00:00 1.7 2 Sudoeste 7 Sudoeste 0 -- -- 91
2019-04-08 23:00:00 2.5 2 Oeste 10 Sudoeste 0 -- -- 91
2019-04-08 22:00:00 3.8 0 Calma 6 Sur 0 -- -- 85
2019-04-08 21:00:00 5.3 4 Sudeste 14 Este 0 -- -- 80
2019-04-08 20:00:00 6.4 4 Este 28 Sur 0.6 -- -- 76
2019-04-08 19:00:00 8.3 9 Sur 28 Sudoeste 0 -- -- 63
2019-04-08 18:00:00 9.8 13 Sur 33 Sur 0 -- -- 56
2019-04-08 17:00:00 10.3 13 Sudoeste 26 Sur 0 -- -- 49
2019-04-08 16:00:00 10.5 9 Sudoeste 33 Sudoeste 0 -- -- 48
2019-04-08 15:00:00 8.9 16 Sudoeste 30 Sur 0.2 -- -- 52
2019-04-08 14:00:00 9.1 15 Sudoeste 35 Sudoeste 0 -- -- 56
2019-04-08 13:00:00 9.3 10 Sudoeste 26 Sudoeste 0 -- -- 62
2019-04-08 12:00:00 7.3 6 Sudoeste 14 Sudeste 0 -- -- 73
2019-04-08 11:00:00 5.5 3 Sur 9 Sudoeste 0 -- -- 89
2019-04-08 10:00:00 4.2 3 Nordeste 7 Este 0 -- -- 96
2019-04-08 09:00:00 2.9 3 Sudoeste 6 Sur 0 -- -- 97
2019-04-08 08:00:00 2.3 0 Calma 12 Sudoeste 0 -- -- 96
2019-04-08 07:00:00 2.2 7 Sudoeste 10 Sudoeste 0 -- -- 97
2019-04-08 06:00:00 2.2 3 Sudoeste 8 Sudoeste 0 -- -- 97
2019-04-08 05:00:00 1.9 2 Sudoeste 7 Sudoeste 0.2 -- -- 97
2019-04-08 04:00:00 1.6 3 Sudoeste 6 Sudoeste 0 -- -- 96
2019-04-08 03:00:00 1.5 0 Calma 5 Sudoeste 0.2 -- -- 96
2019-04-08 02:00:00 1.3 0 Calma 3 Sudoeste 0.2 -- -- 95
2019-04-08 01:00:00 1.2 2 Sudoeste 4 Sudoeste 0.6 -- -- 94
2019-04-08 00:00:00 1.3 3 Sudoeste 10 Sur 1 -- -- 94
2019-04-07 23:00:00 2 5 Sudoeste 13 Sudoeste 0.8 -- -- 93
2019-04-07 22:00:00 3.1 4 Sudeste 12 Sudeste 0.4 -- -- 91
2019-04-07 21:00:00 3.8 4 Sur 14 Sudoeste 0.8 -- -- 87
2019-04-07 20:00:00 4.7 8 Sudoeste 26 Sur 0.6 -- -- 81
2019-04-07 19:00:00 6.9 16 Sur 35 Sudoeste 0 -- -- 68
2019-04-07 18:00:00 8.2 15 Sudoeste 32 Sudoeste 0 -- -- 47
2019-04-07 17:00:00 8.9 23 Sur 37 Sur 0 -- -- 51
2019-04-07 16:00:00 9.4 14 Sur 35 Sudoeste 0 -- -- 48
2019-04-07 15:00:00 9.6 18 Sudoeste 32 Sudoeste 0.2 -- -- 43
2019-04-07 14:00:00 8.9 7 Sudoeste 17 Oeste 0 -- -- 53
2019-04-07 13:00:00 8.6 7 Nordeste 16 Este 0 -- -- 64
2019-04-07 12:00:00 7.5 5 Nordeste 12 Nordeste 0 -- -- 61
2019-04-07 11:00:00 5.6 2 Nordeste 21 Norte 0 -- -- 58
2019-04-07 10:00:00 3.2 9 Norte 16 Norte 0 -- -- 87
2019-04-07 09:00:00 0.1 2 Sudoeste 5 Sudoeste 0 -- -- 94
2019-04-07 08:00:00 -0.3 4 Sudoeste 7 Sudoeste 0 -- -- 94
2019-04-07 07:00:00 -0.2 0 Calma 8 Sudoeste 0 -- -- 94
2019-04-07 06:00:00 -0.2 3 Sudoeste 9 Sudoeste 0 -- -- 94
2019-04-07 05:00:00 0.3 3 Sudeste 8 Sudeste 0 -- -- 92
2019-04-07 04:00:00 0.1 4 Sudoeste 7 Sudoeste 0 -- -- 94
2019-04-07 03:00:00 0.3 2 Sudoeste 10 Este 0 -- -- 93
2019-04-07 02:00:00 0.7 2 Sudoeste 16 Norte 0 -- -- 90
2019-04-07 01:00:00 1.1 3 Noroeste 6 Noroeste 0 -- -- 94
2019-04-07 00:00:00 1.3 0 Calma 8 Nordeste 0.2 -- -- 95
2019-04-06 23:00:00 1.3 0 Calma 9 Sudoeste 0.2 -- -- 94
2019-04-06 22:00:00 1.5 4 Sudoeste 7 Sudoeste 0.2 -- -- 95
2019-04-06 21:00:00 1.8 0 Calma 18 Norte 0.2 -- -- 91
2019-04-06 20:00:00 2.5 10 Norte 17 Norte 0.2 -- -- 93
2019-04-06 19:00:00 2.4 2 Sur 10 Sudoeste 1.8 -- -- 95
2019-04-06 18:00:00 2.8 2 Sudeste 20 Noroeste 1 -- -- 87
2019-04-06 17:00:00 6.3 5 Nordeste 11 Nordeste 0 -- -- 71
2019-04-06 16:00:00 6.3 2 Norte 8 Oeste 0 -- -- 71
2019-04-06 15:00:00 5.8 6 Sur 17 Sur 0 -- -- 68
2019-04-06 14:00:00 5.8 14 Sur 23 Sudoeste 0 -- -- 70
2019-04-06 13:00:00 3.8 11 Sudeste 23 Sudeste 0 -- -- 81
2019-04-06 12:00:00 1.8 10 Sur 29 Sur 0 -- -- 87
2019-04-06 11:00:00 1.9 8 Sur 23 Sudoeste 0 -- -- 85
2019-04-06 10:00:00 1.1 4 Sur 20 Sur 0.2 -- -- 89
2019-04-06 09:00:00 0.5 8 Sudeste 14 Sudeste 0 -- -- 92
2019-04-06 08:00:00 0.3 4 Sudeste 24 Sudeste 0 -- -- 90
2019-04-06 07:00:00 0.5 7 Sudeste 14 Sudeste 0 -- -- 88
2019-04-06 06:00:00 0 0 Calma 9 Oeste 0 -- -- 89
2019-04-06 05:00:00 -0.7 3 Sudoeste 8 Sudoeste 0 -- -- 92
2019-04-06 04:00:00 -0.4 2 Sudoeste 11 Sudoeste 0 -- -- 90
2019-04-06 03:00:00 -0.4 6 Sudoeste 12 Sudoeste 0 -- -- 90
2019-04-06 02:00:00 -0.1 4 Sudoeste 10 Sudoeste 0 -- -- 90
2019-04-06 01:00:00 0.5 5 Sudoeste 10 Sudoeste 0 -- -- 86
2019-04-06 00:00:00 1.1 9 Sudoeste 15 Sur 0 -- -- 82
2019-04-05 23:00:00 1.7 13 Sur 18 Sudeste 0 -- -- 85
2019-04-05 22:00:00 2 2 Oeste 8 Oeste 0 -- -- 77
2019-04-05 21:00:00 3.9 6 Sudoeste 13 Sudoeste 0 -- -- 64
2019-04-05 20:00:00 5.3 2 Oeste 17 Sudoeste 0 -- -- 57
2019-04-05 19:00:00 6.8 8 Sudoeste 17 Sudoeste 0 -- -- 57
2019-04-05 18:00:00 6.7 7 Sudoeste 25 Sur 0 -- -- 50
2019-04-05 17:00:00 7.1 10 Sur 22 Sudoeste 0 -- -- 56
2019-04-05 16:00:00 7.4 11 Sur 24 Sudoeste 0 -- -- 57
2019-04-05 15:00:00 6.2 7 Sur 22 Sudoeste 0 -- -- 65
2019-04-05 14:00:00 6 9 Sudoeste 18 Sudoeste 0.6 -- -- 70
2019-04-05 13:00:00 3.2 5 Sudoeste 15 Sudoeste 1.4 -- -- 73
2019-04-05 12:00:00 3.3 5 Sudoeste 13 Oeste 2.4 -- -- 75
2019-04-05 11:00:00 2.9 6 Sudoeste 14 Sudoeste 1.4 -- -- 85
2019-04-05 10:00:00 1.6 5 Sudoeste 11 Sudoeste 0.8 -- -- 88
2019-04-05 09:00:00 0.9 3 Sudoeste 7 Sur 0.6 -- -- 96
2019-04-05 08:00:00 0.5 0 Calma -- -- 0.2 -- -- 97
2019-04-05 07:00:00 0.4 0 Calma -- -- 0.2 -- -- 97
2019-04-05 06:00:00 0.4 0 Calma -- -- 0 -- -- 96
2019-04-05 05:00:00 0.4 0 Calma -- -- 0.2 -- -- 96
2019-04-05 04:00:00 0.5 0 Calma -- -- 0 -- -- 97
2019-04-05 03:00:00 0.4 0 Calma 14 Sudeste 0 -- -- 96
2019-04-05 02:00:00 0.6 0 Calma 14 Sudeste 0 -- -- 94
2019-04-05 01:00:00 0.8 3 Sur 13 Sur 0.2 -- -- 94
2019-04-05 00:00:00 1 8 Este 15 Sudeste 0.2 -- -- 95
2019-04-04 23:00:00 1.3 7 Sudeste 19 Sudeste 0.2 -- -- 92
2019-04-04 22:00:00 1.6 9 Sudeste 25 Sudeste 0.4 -- -- 91
2019-04-04 21:00:00 2.1 3 Sudeste 8 Sudeste 0 -- -- 88
2019-04-04 20:00:00 2.6 3 Sudeste 13 Sudoeste 0.2 -- -- 84
2019-04-04 19:00:00 3.3 6 Sudoeste 23 Sudoeste 0 -- -- 75
2019-04-04 18:00:00 4.7 5 Sudoeste 32 Sur 0 -- -- 60
2019-04-04 17:00:00 5.7 15 Sudoeste 36 Sudoeste 0 -- -- 51
2019-04-04 16:00:00 6.8 10 Sudoeste 30 Sur 0 -- -- 58
2019-04-04 15:00:00 5.6 13 Sur 32 Sur 0 -- -- 59
2019-04-04 14:00:00 5.8 7 Sur 18 Sudoeste 0 -- -- 58
2019-04-04 13:00:00 4.5 8 Sudoeste 17 Oeste 0 -- -- 58
2019-04-04 12:00:00 4.4 5 Sur 12 Sur 2.2 -- -- 58
2019-04-04 11:00:00 3.1 5 Sur 9 Sur 2.6 -- -- 70
2019-04-04 10:00:00 0.9 3 Sudeste 8 Sudeste 0.6 -- -- 77
2019-04-04 09:00:00 -2 4 Sudoeste 22 Norte 0 -- -- 85
2019-04-04 08:00:00 -1.3 7 Noroeste 25 Noroeste 0 -- -- 79
2019-04-04 07:00:00 -1.8 3 Sudoeste 18 Noroeste 0 -- -- 82
2019-04-04 06:00:00 -1.2 9 Noroeste 28 Noroeste 0 -- -- 83
2019-04-04 05:00:00 -1.8 8 Noroeste 24 Noroeste 0 -- -- 85
2019-04-04 04:00:00 -2.3 2 Sudoeste 8 Sudoeste 0 -- -- 91
2019-04-04 03:00:00 -2 4 Sudoeste 7 Sudeste 0 -- -- 92
2019-04-04 02:00:00 -1.5 3 Noroeste 17 Norte 0 -- -- 91
2019-04-04 01:00:00 -1.3 7 Noroeste 27 Noroeste 0 -- -- 86
2019-04-04 00:00:00 -1.7 0 Calma 8 Sudoeste 0 -- -- 92
2019-04-03 23:00:00 -1.5 4 Sudoeste 18 Noroeste 0 -- -- 87
2019-04-03 22:00:00 -1.3 3 Norte 5 Noroeste 0 -- -- 93
2019-04-03 21:00:00 -1.1 3 Noroeste 8 Norte 0 -- -- 93
2019-04-03 20:00:00 -0.8 5 Noroeste 12 Noroeste 0 -- -- 93
2019-04-03 19:00:00 -0.2 5 Norte 28 Noroeste 0.2 -- -- 93
2019-04-03 18:00:00 0.8 10 Noroeste 31 Noroeste 1 -- -- 85
2019-04-03 17:00:00 0.6 15 Norte 25 Nordeste 1 -- -- 90
2019-04-03 16:00:00 0.6 6 Oeste 31 Norte 1.8 -- -- 81
2019-04-03 15:00:00 0.8 7 Nordeste 45 Nordeste 0 -- -- 90
2019-04-03 14:00:00 2.1 15 Noroeste 35 Norte 0 -- -- 80
2019-04-03 13:00:00 2.3 8 Norte 22 Norte 0 -- -- 85
2019-04-03 12:00:00 3.1 13 Norte 48 Noroeste 0 -- -- 73
2019-04-03 11:00:00 1.8 9 Norte 22 Norte 0.2 -- -- 91
2019-04-03 10:00:00 2.3 6 Norte 47 Noroeste 0 -- -- 78
2019-04-03 09:00:00 1.5 4 Oeste 19 Noroeste 0 -- -- 80
2019-04-03 08:00:00 1.3 4 Oeste 21 Norte 0 -- -- 79
2019-04-03 07:00:00 2 9 Norte 30 Nordeste 0 -- -- 86
2019-04-03 06:00:00 2.2 9 Norte 18 Norte 0 -- -- 83
2019-04-03 05:00:00 2.2 9 Norte 41 Noroeste 0 -- -- 83
2019-04-03 04:00:00 3 9 Norte 22 Norte 0 -- -- 81
2019-04-03 03:00:00 3.1 4 Norte 22 Norte 0 -- -- 82
2019-04-03 02:00:00 3.6 12 Norte 23 Norte 0 -- -- 83
2019-04-03 01:00:00 4 18 Norte 27 Norte 0 -- -- 90
2019-04-03 00:00:00 4.5 20 Norte 28 Norte 0 -- -- 90
2019-04-02 23:00:00 4.9 17 Norte 32 Noroeste 0 -- -- 88
2019-04-02 22:00:00 5.4 16 Norte 31 Noroeste 0 -- -- 81
2019-04-02 21:00:00 5.8 6 Norte 28 Noroeste 0 -- -- 83
2019-04-02 20:00:00 6.4 23 Norte 39 Norte 0 -- -- 86
2019-04-02 19:00:00 8.9 18 Norte 39 Norte 0 -- -- 70
2019-04-02 18:00:00 8.9 25 Norte 42 Norte 0 -- -- 70
2019-04-02 17:00:00 11.1 21 Norte 31 Norte 0 -- -- 56
2019-04-02 16:00:00 12.3 10 Norte 26 Norte 0 -- -- 48
2019-04-02 15:00:00 13.8 16 Norte 24 Norte 0 -- -- 45
2019-04-02 14:00:00 13.9 9 Norte 20 Norte 0 -- -- 46
2019-04-02 13:00:00 12.2 15 Norte 19 Norte 0 -- -- 55
2019-04-02 12:00:00 10.6 5 Norte 10 Nordeste 0 -- -- 65
2019-04-02 11:00:00 6.7 3 Este 5 Este 0 -- -- 72
2019-04-02 10:00:00 3.3 3 Norte 5 Este 0 -- -- 83
2019-04-02 09:00:00 0.1 0 Calma 6 Sudoeste 0 -- -- 94
2019-04-02 08:00:00 -0.8 2 Oeste 6 Sudeste 0 -- -- 94
2019-04-02 07:00:00 -0.8 0 Calma 5 Noroeste 0 -- -- 95
2019-04-02 06:00:00 -0.1 0 Calma 4 Noroeste 0 -- -- 94
2019-04-02 05:00:00 0.5 0 Calma 5 Noroeste 0 -- -- 91
2019-04-02 04:00:00 1.8 3 Noroeste 7 Noroeste 0 -- -- 88
2019-04-02 03:00:00 3.2 3 Nordeste 6 Noroeste 0 -- -- 87
2019-04-02 02:00:00 2.7 4 Noroeste 8 Noroeste 0 -- -- 88
2019-04-02 01:00:00 4.3 3 Noroeste 11 Sudeste 0 -- -- 81
2019-04-02 00:00:00 6 3 Sudeste 19 Norte 0 -- -- 80
2019-04-01 23:00:00 7.1 14 Norte 21 Norte 0 -- -- 78
2019-04-01 22:00:00 7.6 15 Norte 25 Nordeste 0 -- -- 74
2019-04-01 21:00:00 8.2 15 Norte 31 Norte 0 -- -- 71
2019-04-01 20:00:00 9.3 20 Norte 34 Norte 0 -- -- 62
2019-04-01 19:00:00 11.9 17 Norte 32 Noroeste 0 -- -- 51
2019-04-01 18:00:00 13.2 20 Norte 28 Noroeste 0 -- -- 48
2019-04-01 17:00:00 13.8 13 Norte 28 Norte 0 -- -- 42
2019-04-01 16:00:00 14.5 16 Norte 27 Norte 0 -- -- 46
2019-04-01 15:00:00 15.5 10 Norte 21 Norte 0 -- -- 37
2019-04-01 14:00:00 14.3 5 Nordeste 8 Sudeste 0 -- -- 38
2019-04-01 13:00:00 12 4 Sudeste 6 Sudeste 0 -- -- 44
2019-04-01 12:00:00 9.3 4 Nordeste 5 Nordeste 0 -- -- 66
2019-04-01 11:00:00 4.8 3 Nordeste 5 Nordeste 0 -- -- 70
2019-04-01 10:00:00 2 0 Calma 4 Nordeste 0 -- -- 80
2019-04-01 09:00:00 -1.7 0 Calma 3 Sur 0 -- -- 95
2019-04-01 08:00:00 -2.8 0 Calma 0 Calma 0 -- -- 93
2019-04-01 07:00:00 -2.4 0 Calma 3 Sudoeste 0 -- -- 92
2019-04-01 06:00:00 -1.8 0 Calma 4 Sur 0 -- -- 91
2019-04-01 05:00:00 -1.1 2 Sudoeste 4 Sudoeste 0 -- -- 90
2019-04-01 04:00:00 -0.6 0 Calma 4 Sudoeste 0 -- -- 90
2019-04-01 03:00:00 0.3 3 Sur 4 Sur 0 -- -- 87
2019-04-01 02:00:00 1.2 0 Calma 4 Noroeste 0 -- -- 87
2019-04-01 01:00:00 2.3 0 Calma 4 Noroeste 0 -- -- 85
2019-04-01 00:00:00 3.5 3 Sudoeste 5 Sudoeste 0 -- -- 79
2019-03-31 23:00:00 5.3 2 Nordeste 8 Sur 0 -- -- 74
2019-03-31 22:00:00 7.7 5 Sur 19 Noroeste 0 -- -- 68
2019-03-31 21:00:00 9.7 10 Norte 27 Noroeste 0 -- -- 61
2019-03-31 20:00:00 11.2 14 Norte 23 Noroeste 0 -- -- 56
2019-03-31 19:00:00 13 10 Norte 20 Norte 0 -- -- 49
2019-03-31 18:00:00 13.9 0 Calma 17 Norte 0 -- -- 39
2019-03-31 17:00:00 13.1 11 Noroeste 30 Noroeste 0 -- -- 42
2019-03-31 16:00:00 15 9 Norte 15 Norte 0 -- -- 42
2019-03-31 15:00:00 13.7 5 Sur 24 Oeste 0 -- -- 40
2019-03-31 14:00:00 12 12 Norte 25 Sudeste 0 -- -- 46
2019-03-31 13:00:00 12.2 5 Noroeste 10 Norte 0 -- -- 49
2019-03-31 12:00:00 11.5 4 Nordeste 6 Nordeste 0 -- -- 59
2019-03-31 11:00:00 7.2 2 Nordeste 4 Nordeste 0 -- -- 71
2019-03-31 10:00:00 3.7 2 Este 3 Sudeste 0 -- -- 84
2019-03-31 09:00:00 0.2 0 Calma 2 Sudeste 0 -- -- 97
2019-03-31 08:00:00 -0.9 0 Calma 2 Noroeste 0 -- -- 95
2019-03-31 07:00:00 -0.2 0 Calma 4 Sur 0 -- -- 95
2019-03-31 06:00:00 0.4 0 Calma 5 Sudoeste 0 -- -- 93
2019-03-31 05:00:00 1.2 0 Calma 4 Norte 0 -- -- 91
2019-03-31 03:00:00 3.2 0 Calma 2 Noroeste 0 -- -- 84
2019-03-31 01:00:00 4.7 0 Calma 3 Noroeste 0 -- -- 80
2019-03-31 00:00:00 5.7 0 Calma 4 Sur 0 -- -- 76
2019-03-30 23:00:00 7.5 0 Calma 5 Este 0 -- -- 70
2019-03-30 22:00:00 8.4 4 Sudoeste 12 Este 0 -- -- 64
2019-03-30 21:00:00 9.3 7 Este 17 Este 0 -- -- 62
2019-03-30 20:00:00 10.1 10 Este 19 Este 0 -- -- 59
2019-03-30 19:00:00 11.4 5 Noroeste 10 Noroeste 0 -- -- 53
2019-03-30 18:00:00 12.1 3 Norte 15 Norte 0 -- -- 54
2019-03-30 17:00:00 11.5 10 Noroeste 36 Sudoeste 0 -- -- 50
2019-03-30 16:00:00 12.7 13 Sur 26 Sudeste 0 -- -- 42
2019-03-30 15:00:00 12.9 11 Sudeste 19 Sudeste 0 -- -- 48
2019-03-30 14:00:00 12.6 0 Calma 6 Norte 0 -- -- 50
2019-03-30 13:00:00 14.3 6 Norte 11 Norte 0 -- -- 43
2019-03-30 12:00:00 13.6 6 Nordeste 7 Nordeste 0 -- -- 48
2019-03-30 11:00:00 7.6 3 Nordeste 4 Nordeste 0 -- -- 70
2019-03-30 10:00:00 4.6 0 Calma 4 Sur 0 -- -- 66
2019-03-30 09:00:00 2.6 0 Calma 3 Sur 0 -- -- 78
2019-03-30 08:00:00 0.3 0 Calma 5 Noroeste 0 -- -- 83
2019-03-30 07:00:00 -0.5 0 Calma 4 Sur 0 -- -- 85
2019-03-30 06:00:00 0.3 0 Calma 12 Este 0 -- -- 83
2019-03-30 05:00:00 0.5 8 Norte 14 Este 0 -- -- 87
2019-03-30 04:00:00 0.5 0 Calma 5 Sur 0 -- -- 79
2019-03-30 03:00:00 1 2 Sur 11 Noroeste 0 -- -- 77
2019-03-30 02:00:00 1.1 4 Noroeste 7 Norte 0 -- -- 78
2019-03-30 01:00:00 2.3 0 Calma 6 Sudoeste 0 -- -- 71
2019-03-30 00:00:00 3.1 0 Calma 5 Norte 0 -- -- 71
2019-03-29 23:00:00 4.6 0 Calma 9 Norte 0 -- -- 65
2019-03-29 22:00:00 7 4 Noroeste 13 Nordeste 0 -- -- 57
2019-03-29 21:00:00 10.5 9 Sur 23 Sur 0 -- -- 42
2019-03-29 20:00:00 11.5 17 Sur 28 Sur 0 -- -- 41
2019-03-29 19:00:00 13.4 8 Sudoeste 18 Sur 0 -- -- 33
2019-03-29 18:00:00 15.5 13 Sur 25 Sudoeste 0 -- -- 32
2019-03-29 17:00:00 16.5 10 Sur 27 Sudeste 0 -- -- 30
2019-03-29 16:00:00 16.5 16 Sur 30 Sur 0 -- -- 30
2019-03-29 15:00:00 16.6 11 Sudoeste 36 Sur 0 -- -- 33
2019-03-29 14:00:00 15.8 15 Sudoeste 35 Sur 0 -- -- 37
2019-03-29 13:00:00 15.9 9 Sudeste 23 Sudoeste 0 -- -- 36
2019-03-29 12:00:00 13.7 5 Norte 8 Norte 0 -- -- 46
2019-03-29 11:00:00 9.8 4 Nordeste 5 Nordeste 0 -- -- 54
2019-03-29 10:00:00 5.9 4 Nordeste 5 Nordeste 0 -- -- 66
2019-03-29 09:00:00 2.3 2 Este 5 Este 0 -- -- 72
2019-03-29 08:00:00 -1.5 0 Calma 3 Sur 0 -- -- 90
2019-03-29 07:00:00 -2.8 0 Calma 2 Sur 0 -- -- 91
2019-03-29 06:00:00 -2.3 0 Calma 4 Sur 0 -- -- 89
2019-03-29 05:00:00 -1.9 0 Calma 4 Nordeste 0 -- -- 86
2019-03-29 04:00:00 -1.4 2 Norte 4 Noroeste 0 -- -- 87
2019-03-29 03:00:00 -0.5 0 Calma 5 Norte 0 -- -- 82
2019-03-29 02:00:00 0.4 0 Calma 4 Sudoeste 0 -- -- 81
2019-03-29 01:00:00 1.4 0 Calma 4 Noroeste 0 -- -- 80
2019-03-29 00:00:00 2.7 2 Sudoeste 6 Noroeste 0 -- -- 71
2019-03-28 23:00:00 3.6 0 Calma 8 Sudoeste 0 -- -- 70
2019-03-28 22:00:00 4.5 0 Calma 9 Sudoeste 0 -- -- 66
2019-03-28 21:00:00 6.1 0 Calma 4 Sur 0 -- -- 55
2019-03-28 20:00:00 9.4 0 Calma 17 Este 0 -- -- 46
2019-03-28 19:00:00 12 11 Este 21 Norte 0 -- -- 40
2019-03-28 18:00:00 14.8 6 Nordeste 23 Nordeste 0 -- -- 32
2019-03-28 17:00:00 16.4 4 Nordeste 23 Norte 0 -- -- 32
2019-03-28 16:00:00 15.8 15 Nordeste 34 Nordeste 0 -- -- 35
2019-03-28 15:00:00 15.5 23 Norte 34 Norte 0 -- -- 35
2019-03-28 14:00:00 15.8 19 Norte 32 Norte 0 -- -- 33
2019-03-28 13:00:00 16.8 8 Nordeste 23 Nordeste 0 -- -- 28
2019-03-28 12:00:00 15.5 11 Nordeste 17 Nordeste 0 -- -- 30
2019-03-28 11:00:00 14.3 6 Nordeste 25 Nordeste 0 -- -- 36
2019-03-28 10:00:00 12.1 10 Norte 18 Norte 0 -- -- 37
2019-03-28 09:00:00 6.6 3 Oeste 10 Sur 0 -- -- 58
2019-03-28 08:00:00 1.9 2 Sur 9 Sur 0 -- -- 72
2019-03-28 07:00:00 -0.2 3 Sudeste 10 Sur 0 -- -- 71
2019-03-28 06:00:00 0.4 3 Oeste 8 Noroeste 0 -- -- 72
2019-03-28 05:00:00 1 3 Noroeste 14 Oeste 0 -- -- 69
2019-03-28 04:00:00 2.3 6 Noroeste 15 Noroeste 0 -- -- 63
2019-03-28 03:00:00 2.4 3 Sudoeste 9 Sur 0 -- -- 65
2019-03-28 02:00:00 2.8 4 Sudoeste 17 Noroeste 0 -- -- 68
2019-03-28 01:00:00 2.8 3 Sur 15 Norte 0 -- -- 72
2019-03-28 00:00:00 3.4 2 Norte 15 Norte 0 -- -- 73
2019-03-27 23:00:00 4.5 4 Este 13 Sur 0 -- -- 72
2019-03-27 22:00:00 6.3 4 Sudoeste 29 Norte 0 -- -- 68
2019-03-27 21:00:00 7.8 17 Norte 29 Noroeste 0 -- -- 56
2019-03-27 20:00:00 8.6 12 Norte 22 Nordeste 0 -- -- 65
2019-03-27 19:00:00 10.5 15 Norte 33 Norte 0 -- -- 51
2019-03-27 18:00:00 12.5 27 Norte 44 Norte 0 -- -- 45
2019-03-27 17:00:00 13.5 28 Norte 38 Norte 0 -- -- 33
2019-03-27 16:00:00 15.1 18 Norte 33 Norte 0 -- -- 26
2019-03-27 15:00:00 15.7 14 Norte 28 Norte 0 -- -- 26
2019-03-27 14:00:00 15.6 15 Norte 33 Nordeste 0 -- -- 25
2019-03-27 13:00:00 14.8 22 Nordeste 36 Nordeste 0 -- -- 28
2019-03-27 12:00:00 15 16 Nordeste 26 Nordeste 0 -- -- 29
2019-03-27 11:00:00 14.3 9 Nordeste 27 Norte 0 -- -- 24
2019-03-27 10:00:00 11.4 3 Nordeste 12 Noroeste 0 -- -- 24
2019-03-27 09:00:00 7 3 Noroeste 7 Nordeste 0 -- -- 47
2019-03-27 08:00:00 1.3 5 Sudoeste 9 Sur 0 -- -- 55
2019-03-27 07:00:00 -1 2 Sudoeste 6 Noroeste 0 -- -- 55
2019-03-27 06:00:00 -0.2 3 Sudoeste 5 Sur 0 -- -- 40
2019-03-27 05:00:00 -0.8 0 Calma 8 Sur 0 -- -- 52
2019-03-27 04:00:00 -1.4 0 Calma 10 Sur 0 -- -- 47
2019-03-27 03:00:00 -0.9 4 Sudoeste 8 Sudoeste 0 -- -- 46
2019-03-27 02:00:00 -0.6 0 Calma 5 Sur 0 -- -- 53
2019-03-27 01:00:00 0.3 0 Calma 7 Sudoeste 0 -- -- 35
2019-03-27 00:00:00 1 0 Calma 8 Noroeste 0 -- -- 46
2019-03-26 23:00:00 1.9 0 Calma 4 Noroeste 0 -- -- 41
2019-03-26 22:00:00 3.1 4 Sudoeste 6 Sudoeste 0 -- -- 31
2019-03-26 21:00:00 5.5 2 Sudoeste 25 Este 0 -- -- 33
2019-03-26 20:00:00 8.9 16 Este 26 Este 0 -- -- 31
2019-03-26 19:00:00 10.1 20 Este 29 Este 0 -- -- 33
2019-03-26 18:00:00 11.7 15 Este 27 Este 0 -- -- 34
2019-03-26 17:00:00 13.6 12 Nordeste 21 Este 0 -- -- 36
2019-03-26 16:00:00 13.8 15 Este 22 Este 0 -- -- 38
2019-03-26 15:00:00 14.5 10 Este 23 Este 0 -- -- 32
2019-03-26 14:00:00 14.7 10 Nordeste 28 Este 0 -- -- 24
2019-03-26 13:00:00 14 18 Nordeste 31 Nordeste 0 -- -- 25
2019-03-26 12:00:00 12.5 21 Nordeste 27 Nordeste 0 -- -- 30
2019-03-26 11:00:00 11.2 18 Este 27 Este 0 -- -- 30
2019-03-26 10:00:00 9.7 6 Este 12 Este 0 -- -- 31
2019-03-26 09:00:00 5.8 3 Sudoeste 15 Noroeste 0 -- -- 49
2019-03-26 08:00:00 2 3 Sudoeste 23 Norte 0 -- -- 73
2019-03-26 07:00:00 1.9 8 Este 28 Nordeste 0 -- -- 74
2019-03-26 06:00:00 2.6 15 Este 30 Norte 0 -- -- 77
2019-03-26 05:00:00 1.9 11 Norte 26 Nordeste 0 -- -- 81
2019-03-26 04:00:00 2.8 23 Norte 30 Norte 0 -- -- 86
2019-03-26 03:00:00 2.7 18 Nordeste 32 Nordeste 0 -- -- 83
2019-03-26 02:00:00 3.1 21 Norte 36 Norte 0 -- -- 82
2019-03-26 01:00:00 3.4 16 Nordeste 29 Nordeste 0 -- -- 78
2019-03-26 00:00:00 4.2 19 Norte 31 Nordeste 0 -- -- 70
2019-03-25 23:00:00 4.4 22 Norte 30 Norte 0 -- -- 75
2019-03-25 22:00:00 4.7 12 Norte 26 Norte 0 -- -- 70
2019-03-25 21:00:00 5.3 15 Norte 28 Norte 0 -- -- 77
2019-03-25 20:00:00 6.6 17 Norte 27 Norte 0 -- -- 67
2019-03-25 19:00:00 8.1 18 Norte 32 Nordeste 0 -- -- 57
2019-03-25 18:00:00 10.1 18 Norte 43 Norte 0 -- -- 50
2019-03-25 17:00:00 11.2 21 Norte 36 Noroeste 0 -- -- 48
2019-03-25 16:00:00 12.1 17 Norte 38 Noroeste 0 -- -- 46
2019-03-25 15:00:00 12.8 16 Norte 32 Norte 0 -- -- 46
2019-03-25 14:00:00 12.5 17 Norte 32 Noroeste 0 -- -- 46
2019-03-25 13:00:00 12 15 Norte 28 Norte 0 -- -- 50
2019-03-25 12:00:00 11.1 9 Norte 29 Norte 0 -- -- 57
2019-03-25 11:00:00 9.2 17 Norte 31 Norte 0 -- -- 63
2019-03-25 10:00:00 7 21 Norte 38 Norte 0 -- -- 70
2019-03-25 09:00:00 5.6 20 Norte 34 Norte 0 -- -- 78
2019-03-25 08:00:00 2.9 5 Este 14 Nordeste 0 -- -- 91
2019-03-25 07:00:00 2.5 10 Este 20 Este 0 -- -- 93
2019-03-25 06:00:00 1.9 8 Este 13 Este 0 -- -- 97
2019-03-25 05:00:00 0.9 2 Sur 6 Noroeste 0 -- -- 96
2019-03-25 04:00:00 0.8 0 Calma 5 Noroeste 0 -- -- 92
2019-03-25 03:00:00 2.2 0 Calma 6 Sur 0 -- -- 91
2019-03-25 02:00:00 3.3 2 Sudeste 8 Sur 0 -- -- 90
2019-03-25 01:00:00 4.4 2 Sur 13 Este 0 -- -- 87
2019-03-25 00:00:00 5.7 3 Sudoeste 12 Nordeste 0 -- -- 83